Home Previsioni Grafici Avvisi Live Satellite Webcam Min e Max Mappe Metar Effemeridi Terremoti Info Glossario

Report METAR

 

LIEB - Cape Bellavista, Italy
Distance from station: SE 54km
Dati ricevuti: 23/04/2018 10:55
Sereno
Sereno
 Vento da ENE
Vento: ENE 13 km/h
Temperatura: 21°C
P.to Rugiada: 10°C
Umidità: 50%
Barometro: 1020 hPa
Summary: Sereno
Visibility: superiore a 10 km
2018/04/23 08:55 LIEB 230855Z 07007KT CAVOK 21/10 Q1020 RMK SKC QUK 1 QUL 0 VIS MAR 30 KM MON LIB VIS MIN 9999
LIEO - Olbia/Costa Smer, Italy
Distance from station: NNE 70km
Dati ricevuti: 23/04/2018 10:50
Sereno
Sereno
 Vento da NNE
Vento: NNE 7 km/h
Temperatura: 23°C
P.to Rugiada: 11°C
Umidità: 47%
Barometro: 1020 hPa
Summary: Sereno
Visibility: superiore a 10 km
2018/04/23 08:50 LIEO 230850Z 03004KT 330V090 CAVOK 23/11 Q1020
 
LIEA - Alghero, Italy
Distance from station: ONO 94km
Dati ricevuti: 23/04/2018 10:50
Sereno
Sereno
 Vento da NNE
Vento: NNE 9 km/h
Temperatura: 22°C
P.to Rugiada: 9°C
Umidità: 44%
Barometro: 1020 hPa
Summary: Sereno
Visibility: superiore a 10 km
2018/04/23 08:50 LIEA 230850Z 03005KT 360V060 CAVOK 22/09 Q1020
LIED - Decimomannu(It-A, Italy
Distance from station: SSO 107km
Dati ricevuti: 23/04/2018 10:55
Sereno
Sereno
 Vento da SE
Vento: SE 7 km/h
Temperatura: 23°C
P.to Rugiada: 16°C
Umidità: 65%
Barometro: 1019 hPa
Summary: Sereno
Visibility: superiore a 10 km
2018/04/23 08:55 LIED 230855Z 14004KT CAVOK 23/16 Q1019 RMK SKC VIS MIN 9999 WIND THR35 14004KT WIND THR17 /////KT BLU
 
LIEE - Cagliari/Elmas(A, Italy
Distance from station: S 116km
Dati ricevuti: 23/04/2018 10:50
Sereno
Sereno
 Vento da E
Vento: E 6 km/h
Temperatura: 21°C
P.to Rugiada: 9°C
Umidità: 46%
Barometro: 1020 hPa
Summary: Sereno
Visibility: superiore a 10 km
2018/04/23 08:50 LIEE 230850Z 09003KT 040V140 CAVOK 21/09 Q1020
LIEC - Cape Carbonara, Italy
Distance from station: S 133km
Dati ricevuti: 23/04/2018 10:55
Sereno
Sereno
 Vento da SSO
Vento: SSO 11 km/h
Temperatura: 19°C
P.to Rugiada: 13°C
Umidità: 68%
Barometro: 1020 hPa
Summary: Sereno
Visibility: superiore a 10 km
2018/04/23 08:55 LIEC 230855Z 20006KT CAVOK 19/13 Q1020 RMK SKC QUK 0 QUL 0 VIS MAR 20 KM VIS MIN 9999
 
LFKF - Figari (aut), France
Distance from station: N 137km
Dati ricevuti: 23/04/2018 11:00
Sereno
Sereno
 Vento da SSO
Vento: SSO 11 km/h
Temperatura: 22°C
P.to Rugiada: 15°C
Umidità: 65%
Barometro: 1020 hPa
Summary: Sereno
Visibility: superiore a 10 km
2018/04/23 09:00 LFKF 230900Z AUTO 21006KT 180V240 CAVOK 22/15 Q1020 NOSIG
LFKS - Solenzara (fafb), France
Distance from station: N 182km
Dati ricevuti: 23/04/2018 11:00
Sereno
Sereno
 Vento da ESE
Vento: ESE 7 km/h
Temperatura: 21°C
P.to Rugiada: 14°C
Umidità: 64%
Barometro: 1020 hPa
Summary: Sereno
Visibility: superiore a 10 km
2018/04/23 09:00 LFKS 230900Z AUTO 12004KT 090V160 CAVOK 21/14 Q1020